sensor_id;sensor_type;location;lat;lon;timestamp;pressure;altitude;pressure_sealevel;temperature;humidity
61740;BME280;47645;45.288;12.038;2023-04-07T00:00:55;1016.8981744134737;;;7.837890625;58.16548425387781
61740;BME280;47645;45.288;12.038;2023-04-07T00:10:55;1016.9138357602927;;;7.91953125;57.386460469560696
61740;BME280;47645;45.288;12.038;2023-04-07T00:20:56;1016.7995655172784;;;7.91953125;57.23679911068708
61740;BME280;47645;45.288;12.038;2023-04-07T00:30:57;1016.7975635002111;;;7.7615234375;57.429187511740835
61740;BME280;47645;45.288;12.038;2023-04-07T00:40:59;1016.7670489927747;;;7.623828125;57.639220909064846
61740;BME280;47645;45.288;12.038;2023-04-07T00:50:58;1016.5616370194865;;;7.39453125;58.00025925065654
61740;BME280;47645;45.288;12.038;2023-04-07T01:01:05;1016.6415615846122;;;7.6697265625;57.34730487027686
61740;BME280;47645;45.288;12.038;2023-04-07T01:11:06;1016.5171350926644;;;7.5322265625;57.274221247945746
61740;BME280;47645;45.288;12.038;2023-04-07T01:21:05;1016.5685767566949;;;7.379296875;57.39524345894402
61740;BME280;47645;45.288;12.038;2023-04-07T01:31:02;1016.5753917934787;;;7.3080078125;57.50838059914188
61740;BME280;47645;45.288;12.038;2023-04-07T01:41:02;1016.5239679047218;;;7.1958984375;57.531139611544795
61740;BME280;47645;45.288;12.038;2023-04-07T01:51:04;1016.5368265841978;;;7.0123046875;57.78249830052853
61740;BME280;47645;45.288;12.038;2023-04-07T02:01:04;1016.4760816319008;;;6.9359375;57.867513895346896
61740;BME280;47645;45.288;12.038;2023-04-07T02:11:05;1016.4154918116136;;;6.920703125;57.83885621628868
61740;BME280;47645;45.288;12.038;2023-04-07T02:21:06;1016.3914226412231;;;6.8083984375;57.939472457363216
61740;BME280;47645;45.288;12.038;2023-04-07T02:31:06;1016.4157474418131;;;6.737109375;57.9964905869783
61740;BME280;47645;45.288;12.038;2023-04-07T02:41:06;1016.2759366789026;;;6.6607421875;58.075608498144284
61740;BME280;47645;45.288;12.038;2023-04-07T02:51:07;1016.2289746342125;;;6.5537109375;58.15421098033358
61740;BME280;47645;45.288;12.038;2023-04-07T03:01:07;1016.1683356677283;;;6.395703125;58.40050663726501
61740;BME280;47645;45.288;12.038;2023-04-07T03:11:08;1016.190556038984;;;6.319140625;58.728500153359924
61740;BME280;47645;45.288;12.038;2023-04-07T03:21:09;1016.226243053668;;;6.2326171875;58.846823960764524
61740;BME280;47645;45.288;12.038;2023-04-07T03:31:09;1016.1581356032611;;;6.3244140625;58.38093625150921
61740;BME280;47645;45.288;12.038;2023-04-07T03:41:10;1016.2823926121616;;;6.0134765625;60.13783149006302
61740;BME280;47645;45.288;12.038;2023-04-07T03:51:11;1016.2880320172756;;;5.52421875;62.41730746747949
61740;BME280;47645;45.288;12.038;2023-04-07T04:01:11;1016.2853260599867;;;5.50390625;66.55412176651438
61740;BME280;47645;45.288;12.038;2023-04-07T04:11:12;1016.2731930473975;;;5.5140625;65.25492272111329
61740;BME280;47645;45.288;12.038;2023-04-07T04:21:12;1016.3035076119122;;;5.9115234375;65.25387899433147
61740;BME280;47645;45.288;12.038;2023-04-07T04:31:13;1016.3410201365133;;;5.9115234375;65.60534853308968
61740;BME280;47645;45.288;12.038;2023-04-07T04:41:14;1016.5186951723524;;;5.6771484375;69.20740221232674
61740;BME280;47645;45.288;12.038;2023-04-07T04:51:14;1016.4032395501097;;;5.5853515625;75.25321535384283
61740;BME280;47645;45.288;12.038;2023-04-07T05:01:15;1016.4694933330298;;;5.6720703125;73.52962684799837
61740;BME280;47645;45.288;12.038;2023-04-07T05:11:15;1016.2766188282761;;;5.728125;67.44987829032893
61740;BME280;47645;45.288;12.038;2023-04-07T05:21:16;1016.432423610978;;;5.8861328125;66.81637000031832
61740;BME280;47645;45.288;12.038;2023-04-07T05:31:16;1016.4389953762977;;;5.9625;80.75635729507175
61740;BME280;47645;45.288;12.038;2023-04-07T05:41:17;1016.4000910639998;;;5.9318359375;78.83858963230934
61740;BME280;47645;45.288;12.038;2023-04-07T05:51:18;1016.3609331796284;;;6.1154296875;75.57440715537895
61740;BME280;47645;45.288;12.038;2023-04-07T06:01:18;1016.2659944123337;;;6.5537109375;81.74494237846656
61740;BME280;47645;45.288;12.038;2023-04-07T06:11:20;1016.4063708073984;;;6.8798828125;81.16205982087821
61740;BME280;47645;45.288;12.038;2023-04-07T06:21:20;1016.4279822203232;;;7.3333984375;78.1183354081844
61740;BME280;47645;45.288;12.038;2023-04-07T06:31:21;1016.3742761806081;;;7.5271484375;78.35841849925775
61740;BME280;47645;45.288;12.038;2023-04-07T06:41:21;1016.3934732539606;;;8.2916015625;75.12583878836507
61740;BME280;47645;45.288;12.038;2023-04-07T06:51:22;1016.3747321502084;;;9.2650390625;71.7623993636476
61740;BME280;47645;45.288;12.038;2023-04-07T07:01:22;1016.2455432720631;;;10.08046875;70.9083436130668
61740;BME280;47645;45.288;12.038;2023-04-07T07:11:23;1016.2668085087521;;;10.090625;69.42579259822931
61740;BME280;47645;45.288;12.038;2023-04-07T07:21:24;1016.2855634416582;;;10.406640625;69.28167383501672
61740;BME280;47645;45.288;12.038;2023-04-07T07:31:25;1016.2023537214503;;;10.4015625;69.94408576511394
61740;BME280;47645;45.288;12.038;2023-04-07T07:41:26;1016.1767675855015;;;10.172265625;69.23111786519907
61740;BME280;47645;45.288;12.038;2023-04-07T07:51:27;1016.1059218305868;;;10.7787109375;69.07927368022327
61740;BME280;47645;45.288;12.038;2023-04-07T08:01:26;1016.0560121718751;;;10.8705078125;67.29730753106791
61740;BME280;47645;45.288;12.038;2023-04-07T08:11:27;1016.0469453898353;;;11.56875;62.1268872313432
61740;BME280;47645;45.288;12.038;2023-04-07T08:21:28;1015.9414591512998;;;11.9560546875;58.01586536978285
61740;BME280;47645;45.288;12.038;2023-04-07T08:31:29;1015.9123756583284;;;12.35859375;56.78839002888813
61740;BME280;47645;45.288;12.038;2023-04-07T08:41:36;1015.9400720622731;;;12.8275390625;53.56624997321966
61740;BME280;47645;45.288;12.038;2023-04-07T08:51:32;1015.8056730164233;;;13.4748046875;50.24883332507913
61740;BME280;47645;45.288;12.038;2023-04-07T09:01:34;1015.7491095720375;;;13.8623046875;53.629467156061274
61740;BME280;47645;45.288;12.038;2023-04-07T09:11:35;1015.8121680359176;;;14.2087890625;51.12040248969701
61740;BME280;47645;45.288;12.038;2023-04-07T09:21:47;1015.9341204585683;;;14.5197265625;47.558272738119754
61740;BME280;47645;45.288;12.038;2023-04-07T09:31:43;1015.8308056658777;;;15.1771484375;44.688228785099376
61740;BME280;47645;45.288;12.038;2023-04-07T09:41:35;1015.7868845216019;;;15.6359375;47.0871955470999
61740;BME280;47645;45.288;12.038;2023-04-07T09:51:36;1015.666264574872;;;16.2578125;42.84971432028126
61740;BME280;47645;45.288;12.038;2023-04-07T10:01:37;1015.596394919962;;;16.359765625;40.32572671546701
61740;BME280;47645;45.288;12.038;2023-04-07T10:11:38;1015.4917448484714;;;16.670703125;42.836115219676294
61740;BME280;47645;45.288;12.038;2023-04-07T10:21:40;1015.3360575664407;;;17.5626953125;42.30741119188686
61740;BME280;47645;45.288;12.038;2023-04-07T10:31:40;1015.2404129376383;;;18.3373046875;41.952512099678344
61740;BME280;47645;45.288;12.038;2023-04-07T10:41:41;1015.1826161533629;;;19.1681640625;40.62905698668109
61740;BME280;47645;45.288;12.038;2023-04-07T10:51:42;1015.0746549768222;;;18.7552734375;40.13623851646967
61740;BME280;47645;45.288;12.038;2023-04-07T11:01:43;1015.04810991581;;;19.6015625;38.57207673344815
61740;BME280;47645;45.288;12.038;2023-04-07T11:11:47;1015.0215734286159;;;19.19375;36.10318261517036
61740;BME280;47645;45.288;12.038;2023-04-07T11:41:49;1014.8235524278296;;;19.18359375;35.58155214455737
61740;BME280;47645;45.288;12.038;2023-04-07T11:51:57;1014.7809613852382;;;19.01015625;37.113112904877596
61740;BME280;47645;45.288;12.038;2023-04-07T12:01:51;1014.70211012486;;;19.6421875;38.62353487048802
61740;BME280;47645;45.288;12.038;2023-04-07T12:11:51;1014.6887196016755;;;20.1927734375;39.3569101104032
61740;BME280;47645;45.288;12.038;2023-04-07T12:21:52;1014.6574907426882;;;19.703515625;38.42264579964985
61740;BME280;47645;45.288;12.038;2023-04-07T12:31:54;1014.6482998890802;;;19.0203125;35.96714111792153
61740;BME280;47645;45.288;12.038;2023-04-07T12:41:55;1014.4857912823298;;;19.4892578125;39.11120342677166
61740;BME280;47645;45.288;12.038;2023-04-07T12:51:56;1014.5054223170981;;;19.7390625;38.60039006256982
61740;BME280;47645;45.288;12.038;2023-04-07T13:01:57;1014.497234579484;;;19.63203125;40.779004161419124
61740;BME280;47645;45.288;12.038;2023-04-07T13:11:58;1014.3945909009245;;;19.723828125;40.87663792861247
61740;BME280;47645;45.288;12.038;2023-04-07T13:21:59;1014.3537482200779;;;20.335546875;39.5289819289995
61740;BME280;47645;45.288;12.038;2023-04-07T13:32:04;1014.2538149419474;;;20.9419921875;39.10864356974032
61740;BME280;47645;45.288;12.038;2023-04-07T13:42:01;1014.1281495053604;;;21.6404296875;35.74768025447646
61740;BME280;47645;45.288;12.038;2023-04-07T13:52:02;1014.0839858582981;;;22.2724609375;36.38789189889951
61740;BME280;47645;45.288;12.038;2023-04-07T14:02:03;1013.9486719743936;;;22.435546875;37.829765092120475
61740;BME280;47645;45.288;12.038;2023-04-07T14:12:05;1013.9026675165409;;;21.7728515625;38.357824701973826
61740;BME280;47645;45.288;12.038;2023-04-07T14:22:06;1013.8915922264284;;;21.201953125;39.39579107964506
61740;BME280;47645;45.288;12.038;2023-04-07T14:32:07;1013.8857182319033;;;20.671875;40.61455734225421
61740;BME280;47645;45.288;12.038;2023-04-07T14:42:08;1013.9428143385031;;;20.575;39.948130789386774
61740;BME280;47645;45.288;12.038;2023-04-07T14:52:10;1013.8423972521086;;;20.1876953125;40.83755334906359
61740;BME280;47645;45.288;12.038;2023-04-07T15:02:11;1013.7746083152156;;;20.0091796875;41.23289202267828
61740;BME280;47645;45.288;12.038;2023-04-07T15:12:12;1013.7479883069441;;;19.8818359375;41.765603514015986
61740;BME280;47645;45.288;12.038;2023-04-07T15:22:13;1013.8397637565415;;;19.2447265625;41.67118389871086
61740;BME280;47645;45.288;12.038;2023-04-07T15:32:14;1013.8434503329056;;;18.7501953125;43.40088836877667
61740;BME280;47645;45.288;12.038;2023-04-07T15:42:15;1013.8791366025164;;;18.449609375;43.997976646091296
61740;BME280;47645;45.288;12.038;2023-04-07T15:52:16;1013.8698417786056;;;18.0111328125;46.531067371556006
61740;BME280;47645;45.288;12.038;2023-04-07T16:02:17;1013.8609786404387;;;17.6033203125;46.97989553436141
61740;BME280;47645;45.288;12.038;2023-04-07T16:12:18;1013.8866892406778;;;17.0630859375;48.82398698916844
61740;BME280;47645;45.288;12.038;2023-04-07T16:22:20;1013.9560198171192;;;16.9203125;49.559593704012364
61740;BME280;47645;45.288;12.038;2023-04-07T16:32:20;1013.9711451818662;;;16.6400390625;50.375870941793075
61740;BME280;47645;45.288;12.038;2023-04-07T16:42:23;1014.077009070196;;;16.36484375;51.10618172626741
61740;BME280;47645;45.288;12.038;2023-04-07T16:52:23;1014.1129392063526;;;16.0029296875;52.00863044884548
61740;BME280;47645;45.288;12.038;2023-04-07T17:02:24;1014.1572357260462;;;15.8041015625;52.39881258412154
61740;BME280;47645;45.288;12.038;2023-04-07T17:12:26;1014.2593403372564;;;15.31484375;53.54336508895644
61740;BME280;47645;45.288;12.038;2023-04-07T17:22:26;1014.3285895320665;;;15.1771484375;54.13233166513766
61740;BME280;47645;45.288;12.038;2023-04-07T17:32:26;1014.4125865531261;;;14.891796875;54.686734080500365
61740;BME280;47645;45.288;12.038;2023-04-07T17:42:27;1014.4238964145418;;;14.5400390625;55.37953412622421
61740;BME280;47645;45.288;12.038;2023-04-07T17:52:29;1014.5846198530376;;;14.249609375;56.08976674468324
61740;BME280;47645;45.288;12.038;2023-04-07T18:02:29;1014.6580565335983;;;13.9896484375;56.794882590363436
61740;BME280;47645;45.288;12.038;2023-04-07T18:12:31;1014.7388604017817;;;13.52578125;57.798848201145795
61740;BME280;47645;45.288;12.038;2023-04-07T18:22:31;1014.7933503153182;;;13.2404296875;58.44444340252231
61740;BME280;47645;45.288;12.038;2023-04-07T18:32:32;1014.8561693395031;;;13.0466796875;58.59196096011481
61740;BME280;47645;45.288;12.038;2023-04-07T18:42:32;1014.8845329357093;;;12.7205078125;59.58737129707425
61740;BME280;47645;45.288;12.038;2023-04-07T18:52:33;1014.8879173711439;;;12.43515625;60.055677551865834
61740;BME280;47645;45.288;12.038;2023-04-07T19:02:34;1014.9852929173619;;;12.24140625;60.09040429234754
61740;BME280;47645;45.288;12.038;2023-04-07T19:12:35;1015.1137303381045;;;11.9;60.85201800997462
61740;BME280;47645;45.288;12.038;2023-04-07T19:22:36;1015.1651988941081;;;11.77265625;60.92351036648285
61740;BME280;47645;45.288;12.038;2023-04-07T19:32:37;1015.2295089679886;;;11.55859375;61.55575975788642
61740;BME280;47645;45.288;12.038;2023-04-07T19:42:39;1015.3652316242839;;;11.3037109375;61.972424078449116
61740;BME280;47645;45.288;12.038;2023-04-07T19:52:38;1015.3949710602632;;;11.3037109375;61.61956441172324
61740;BME280;47645;45.288;12.038;2023-04-07T20:02:38;1015.4666064712267;;;11.0896484375;61.97722684583273
61740;BME280;47645;45.288;12.038;2023-04-07T20:12:40;1015.4336889517269;;;10.93671875;62.208935854884764
61740;BME280;47645;45.288;12.038;2023-04-07T20:22:40;1015.4894694144359;;;10.72265625;62.46463958028469
61740;BME280;47645;45.288;12.038;2023-04-07T20:32:41;1015.4725623714955;;;10.5595703125;62.808004800332114
61740;BME280;47645;45.288;12.038;2023-04-07T20:42:42;1015.5060726628527;;;10.3759765625;62.98094496566082
61740;BME280;47645;45.288;12.038;2023-04-07T20:52:43;1015.5225281940549;;;10.2587890625;63.07453447573808
61740;BME280;47645;45.288;12.038;2023-04-07T21:02:44;1015.4983092850553;;;10.1416015625;63.329899084615384
61740;BME280;47645;45.288;12.038;2023-04-07T21:12:44;1015.5722890085422;;;9.784765625;64.72221445614453
61740;BME280;47645;45.288;12.038;2023-04-07T21:22:45;1015.5899860550888;;;9.4025390625;71.35192735822245
61740;BME280;47645;45.288;12.038;2023-04-07T21:32:45;1015.6130301583266;;;9.2548828125;68.6597906542463
61740;BME280;47645;45.288;12.038;2023-04-07T21:42:47;1015.6469162780085;;;9.41796875;72.93346402915024
61740;BME280;47645;45.288;12.038;2023-04-07T21:52:50;1015.5747059429527;;;9.4943359375;69.62732201320807
61740;BME280;47645;45.288;12.038;2023-04-07T22:02:47;1015.4934638017528;;;9.4484375;71.95381921763841
61740;BME280;47645;45.288;12.038;2023-04-07T22:12:48;1015.506675370035;;;9.4994140625;72.73440762416088
61740;BME280;47645;45.288;12.038;2023-04-07T22:22:49;1015.3577735412096;;;9.4994140625;74.34803796669132
61740;BME280;47645;45.288;12.038;2023-04-07T22:32:50;1015.3729891666038;;;9.4994140625;76.93644004942801
61740;BME280;47645;45.288;12.038;2023-04-07T22:42:51;1015.379060223804;;;9.2701171875;74.91054668951833
61740;BME280;47645;45.288;12.038;2023-04-07T22:52:51;1015.37307122644;;;9.2701171875;70.33259217574259
61740;BME280;47645;45.288;12.038;2023-04-07T23:02:52;1015.2512330254051;;;9.234375;68.0315253348287
61740;BME280;47645;45.288;12.038;2023-04-07T23:12:53;1015.3511541444811;;;9.7134765625;64.12815024062564
61740;BME280;47645;45.288;12.038;2023-04-07T23:22:53;1015.3865140500661;;;9.5759765625;64.02560617445734
61740;BME280;47645;45.288;12.038;2023-04-07T23:32:55;1015.5052723575566;;;9.530078125;64.70063477643592
61740;BME280;47645;45.288;12.038;2023-04-07T23:42:55;1015.5805031354005;;;9.326171875;66.28989590879159
61740;BME280;47645;45.288;12.038;2023-04-07T23:52:56;1015.55724850321;;;9.0662109375;64.60566295192552
